Time;durP1;ratioP1;P1;durP2;ratioP2;P2;SDS_P1;SDS_P2;PMS_P1;PMS_P2;Temp;Humidity;BMP_temperature;BMP_pressure;BME280_temperature;BME280_humidity;BME280_pressure;Samples;Min_cycle;Max_cycle;Signal;HPM_P1;HPM_P2
2022/09/04 00:02:09;;;;;;;4.73;4.20;;;;;;;;;;5089632;28;20460;-76
2022/09/04 00:04:41;;;;;;;4.30;4.00;;;;;;;;;;5094199;28;20461;-76
2022/09/04 00:07:12;;;;;;;4.70;4.30;;;;;;;;;;5094035;28;20455;-75
2022/09/04 00:09:43;;;;;;;6.03;4.53;;;;;;;;;;5074422;28;21136;-76
2022/09/04 00:12:10;;;;;;;5.37;4.33;;;;;;;;;;5070274;28;20561;-78
2022/09/04 00:14:43;;;;;;;5.37;4.47;;;;;;;;;;5070660;28;20444;-76
2022/09/04 00:17:14;;;;;;;5.53;5.03;;;;;;;;;;5070920;28;20464;-75
2022/09/04 00:19:43;;;;;;;5.50;5.07;;;;;;;;;;5071060;28;20441;-76
2022/09/04 00:22:18;;;;;;;5.90;5.30;;;;;;;;;;5070589;28;20445;-76
2022/09/04 00:24:49;;;;;;;4.90;4.50;;;;;;;;;;5070295;28;20493;-75
2022/09/04 00:27:21;;;;;;;5.20;4.80;;;;;;;;;;5070867;28;20469;-75
2022/09/04 00:29:54;;;;;;;5.53;5.10;;;;;;;;;;5070665;28;20437;-77
2022/09/04 00:32:25;;;;;;;5.17;4.77;;;;;;;;;;5078265;28;20514;-76
2022/09/04 00:35:01;;;;;;;5.17;4.77;;;;;;;;;;5079528;28;20449;-76
2022/09/04 00:37:30;;;;;;;5.77;4.87;;;;;;;;;;5072728;28;20468;-76
2022/09/04 00:39:59;;;;;;;5.70;5.20;;;;;;;;;;5070763;28;20451;-75
2022/09/04 00:42:37;;;;;;;5.93;5.37;;;;;;;;;;5070390;28;20448;-76
2022/09/04 00:45:13;;;;;;;6.80;6.20;;;;;;;;;;5070627;28;20470;-77
2022/09/04 00:48:00;;;;;;;6.50;5.90;;;;;;;;;;5071502;28;20479;-75
2022/09/04 00:50:40;;;;;;;6.10;5.50;;;;;;;;;;5074419;28;20456;-77
2022/09/04 00:53:30;;;;;;;5.40;4.50;;;;;;;;;;5074500;28;20487;-75
2022/09/04 00:56:05;;;;;;;8.73;5.80;;;;;;;;;;5059301;28;20456;-75
2022/09/04 00:58:42;;;;;;;5.67;5.13;;;;;;;;;;5074521;28;20447;-77
2022/09/04 01:01:11;;;;;;;6.00;5.40;;;;;;;;;;5074565;28;20456;-75
2022/09/04 01:03:47;;;;;;;7.50;4.83;;;;;;;;;;5076115;28;20444;-75
2022/09/04 01:06:21;;;;;;;5.70;5.20;;;;;;;;;;5091873;28;20460;-76
2022/09/04 01:08:58;;;;;;;5.73;5.33;;;;;;;;;;5083544;28;20537;-75
2022/09/04 01:11:31;;;;;;;5.37;4.97;;;;;;;;;;5074192;28;20472;-76
2022/09/04 01:14:02;;;;;;;8.40;5.10;;;;;;;;;;5074002;28;20444;-76
2022/09/04 01:16:34;;;;;;;5.50;5.10;;;;;;;;;;5073576;28;20468;-76
2022/09/04 01:19:05;;;;;;;4.80;4.40;;;;;;;;;;5074233;28;20444;-77
2022/09/04 01:21:49;;;;;;;5.27;4.77;;;;;;;;;;5074173;28;20436;-76
2022/09/04 01:24:23;;;;;;;4.87;4.53;;;;;;;;;;5073907;28;20452;-76
2022/09/04 01:26:56;;;;;;;5.10;4.67;;;;;;;;;;5086456;28;20452;-76
2022/09/04 01:29:29;;;;;;;5.67;4.97;;;;;;;;;;5090881;28;20450;-75
2022/09/04 01:31:59;;;;;;;5.13;4.73;;;;;;;;;;5078299;28;20483;-76
2022/09/04 01:34:35;;;;;;;4.90;4.60;;;;;;;;;;5073940;28;20486;-76
2022/09/04 01:37:08;;;;;;;5.47;5.13;;;;;;;;;;5073304;28;20503;-75
2022/09/04 01:39:36;;;;;;;6.13;5.53;;;;;;;;;;5073188;28;20854;-77
2022/09/04 01:42:07;;;;;;;5.17;4.77;;;;;;;;;;5073556;28;20870;-76
2022/09/04 01:44:34;;;;;;;5.27;4.77;;;;;;;;;;5073277;28;20460;-75
2022/09/04 01:47:04;;;;;;;5.00;4.60;;;;;;;;;;5073409;28;20471;-75
2022/09/04 01:49:35;;;;;;;5.37;4.87;;;;;;;;;;5073666;28;20446;-76
2022/09/04 01:52:06;;;;;;;5.93;5.43;;;;;;;;;;5073272;28;20541;-76
2022/09/04 01:54:40;;;;;;;5.37;4.90;;;;;;;;;;5073390;28;20444;-76
2022/09/04 01:57:14;;;;;;;5.80;5.30;;;;;;;;;;5073338;28;20494;-77
2022/09/04 01:59:47;;;;;;;5.87;5.00;;;;;;;;;;5073301;28;20852;-76
2022/09/04 02:02:18;;;;;;;5.30;4.90;;;;;;;;;;5073621;28;20449;-75
2022/09/04 02:05:07;;;;;;;5.67;5.17;;;;;;;;;;5073679;28;20505;-78
2022/09/04 02:07:36;;;;;;;5.80;5.20;;;;;;;;;;5073388;28;20464;-77
2022/09/04 02:10:08;;;;;;;5.30;4.87;;;;;;;;;;5073574;28;20451;-77
2022/09/04 02:12:46;;;;;;;6.00;5.40;;;;;;;;;;5053360;28;20488;-76
2022/09/04 02:15:20;;;;;;;5.20;4.80;;;;;;;;;;5053394;28;20450;-76
2022/09/04 02:17:49;;;;;;;5.47;4.97;;;;;;;;;;5052980;28;20473;-75
2022/09/04 02:20:21;;;;;;;5.17;4.77;;;;;;;;;;5052944;28;20446;-74
2022/09/04 02:22:53;;;;;;;6.00;5.50;;;;;;;;;;5052930;28;20533;-76
2022/09/04 02:25:26;;;;;;;5.80;5.37;;;;;;;;;;5069408;28;20460;-75
2022/09/04 02:28:00;;;;;;;6.10;5.60;;;;;;;;;;5075086;28;20462;-77
2022/09/04 02:30:27;;;;;;;6.20;5.67;;;;;;;;;;5075529;28;20499;-76
2022/09/04 02:33:00;;;;;;;5.73;5.23;;;;;;;;;;5062631;28;20482;-78
2022/09/04 02:35:30;;;;;;;5.63;5.23;;;;;;;;;;5052707;28;20441;-76
2022/09/04 02:38:02;;;;;;;6.53;5.93;;;;;;;;;;5052273;28;20465;-76
2022/09/04 02:40:32;;;;;;;5.60;5.13;;;;;;;;;;5052513;28;21065;-76
2022/09/04 02:43:08;;;;;;;5.53;5.13;;;;;;;;;;5052558;28;20949;-75
2022/09/04 02:45:38;;;;;;;6.03;5.43;;;;;;;;;;5052684;28;20445;-77
2022/09/04 02:48:09;;;;;;;5.93;5.43;;;;;;;;;;5052763;28;20470;-76
2022/09/04 02:50:48;;;;;;;6.70;5.70;;;;;;;;;;5052457;28;20437;-76
2022/09/04 02:53:20;;;;;;;5.70;5.20;;;;;;;;;;5065507;28;20486;-76
2022/09/04 02:56:04;;;;;;;6.17;5.67;;;;;;;;;;5072110;28;20475;-76
2022/09/04 02:58:38;;;;;;;6.53;5.40;;;;;;;;;;5070824;28;20452;-75
2022/09/04 03:01:07;;;;;;;4.90;4.60;;;;;;;;;;5072578;28;20479;-77
2022/09/04 03:03:39;;;;;;;6.10;5.60;;;;;;;;;;5071799;28;20437;-76
2022/09/04 03:06:09;;;;;;;5.57;5.17;;;;;;;;;;5071849;28;21084;-77
2022/09/04 03:08:39;;;;;;;6.00;5.53;;;;;;;;;;5071675;28;21120;-75
2022/09/04 03:11:09;;;;;;;5.30;4.90;;;;;;;;;;5070847;28;20542;-75
2022/09/04 03:13:42;;;;;;;5.77;5.10;;;;;;;;;;5071907;28;20449;-76
2022/09/04 03:16:16;;;;;;;4.57;4.27;;;;;;;;;;5071993;28;20444;-76
2022/09/04 03:18:55;;;;;;;5.97;5.23;;;;;;;;;;5071918;28;20429;-76
2022/09/04 03:21:25;;;;;;;5.10;4.70;;;;;;;;;;5071674;28;20440;-76
2022/09/04 03:23:55;;;;;;;5.90;5.33;;;;;;;;;;5071846;28;20413;-75
2022/09/04 03:26:23;;;;;;;5.77;5.27;;;;;;;;;;5071297;28;20958;-75
2022/09/04 03:28:55;;;;;;;5.70;5.27;;;;;;;;;;5071848;28;20449;-76
2022/09/04 03:31:26;;;;;;;5.53;5.00;;;;;;;;;;5072070;28;20463;-76
2022/09/04 03:33:59;;;;;;;5.37;4.97;;;;;;;;;;5071792;28;20478;-75
2022/09/04 03:36:29;;;;;;;6.67;4.73;;;;;;;;;;5071731;28;20504;-75
2022/09/04 03:39:01;;;;;;;5.47;5.07;;;;;;;;;;5074222;28;20437;-75
2022/09/04 03:41:33;;;;;;;6.20;5.60;;;;;;;;;;5079518;28;20510;-75
2022/09/04 03:44:09;;;;;;;6.00;5.40;;;;;;;;;;5080235;28;20498;-76
2022/09/04 03:46:42;;;;;;;5.30;4.80;;;;;;;;;;5077107;28;20837;-75
2022/09/04 03:49:13;;;;;;;5.70;5.20;;;;;;;;;;5061037;28;20868;-76
2022/09/04 03:51:46;;;;;;;5.23;4.83;;;;;;;;;;5061475;28;20510;-75
2022/09/04 03:54:23;;;;;;;5.10;4.70;;;;;;;;;;5071213;28;20437;-77
2022/09/04 03:57:05;;;;;;;5.20;4.80;;;;;;;;;;5071019;28;20559;-75
2022/09/04 03:59:41;;;;;;;5.83;5.43;;;;;;;;;;5069136;28;20559;-76
2022/09/04 04:02:13;;;;;;;5.60;5.20;;;;;;;;;;5071319;28;20847;-76
2022/09/04 04:04:47;;;;;;;6.47;5.90;;;;;;;;;;5071200;28;20455;-76
2022/09/04 04:07:19;;;;;;;5.33;4.93;;;;;;;;;;5071601;28;20465;-77
2022/09/04 04:10:01;;;;;;;6.27;5.80;;;;;;;;;;5077677;28;20450;-75
2022/09/04 04:12:42;;;;;;;5.70;4.60;;;;;;;;;;5092699;28;20497;-76
2022/09/04 04:15:28;;;;;;;5.50;5.07;;;;;;;;;;5069461;28;20472;-75
2022/09/04 04:18:03;;;;;;;5.47;5.07;;;;;;;;;;5071291;28;20464;-76
2022/09/04 04:20:36;;;;;;;5.80;5.40;;;;;;;;;;5071508;28;20432;-76
2022/09/04 04:23:18;;;;;;;6.70;6.00;;;;;;;;;;5063294;28;20425;-75
2022/09/04 04:25:51;;;;;;;6.90;5.60;;;;;;;;;;5069284;28;20444;-76
2022/09/04 04:28:24;;;;;;;6.10;5.60;;;;;;;;;;5071904;28;20472;-75
2022/09/04 04:30:53;;;;;;;5.33;5.03;;;;;;;;;;5075649;28;20578;-75
2022/09/04 04:33:27;;;;;;;5.97;5.27;;;;;;;;;;5093125;28;20470;-74
2022/09/04 04:35:57;;;;;;;5.57;5.17;;;;;;;;;;5094156;28;20459;-74
2022/09/04 04:38:31;;;;;;;5.77;5.30;;;;;;;;;;5088208;28;20496;-77
2022/09/04 04:41:13;;;;;;;6.03;5.57;;;;;;;;;;5082788;28;20856;-75
2022/09/04 04:43:47;;;;;;;6.17;5.70;;;;;;;;;;5074286;28;20863;-77
2022/09/04 04:46:19;;;;;;;5.20;4.80;;;;;;;;;;5083476;28;20445;-75
2022/09/04 04:49:03;;;;;;;6.70;6.10;;;;;;;;;;5082159;28;20425;-76
2022/09/04 04:51:39;;;;;;;8.10;7.33;;;;;;;;;;5080240;28;20445;-76
2022/09/04 04:54:15;;;;;;;9.77;5.90;;;;;;;;;;5076562;28;20460;-76
2022/09/04 04:56:47;;;;;;;6.47;5.93;;;;;;;;;;5078481;28;20464;-76
2022/09/04 04:59:22;;;;;;;6.77;6.27;;;;;;;;;;5079452;28;20479;-74
2022/09/04 05:01:54;;;;;;;7.23;6.53;;;;;;;;;;5078276;28;20444;-75
2022/09/04 05:04:26;;;;;;;7.40;6.80;;;;;;;;;;5074689;28;20449;-76
2022/09/04 05:06:55;;;;;;;6.70;6.20;;;;;;;;;;5075891;28;20472;-76
2022/09/04 05:09:25;;;;;;;6.70;6.10;;;;;;;;;;5083124;28;20848;-76
2022/09/04 05:11:59;;;;;;;6.90;6.50;;;;;;;;;;5082446;28;20424;-76
2022/09/04 05:14:32;;;;;;;7.97;7.27;;;;;;;;;;5083563;28;20433;-76
2022/09/04 05:17:05;;;;;;;8.37;7.60;;;;;;;;;;5086147;28;20452;-75
2022/09/04 05:19:36;;;;;;;8.03;7.33;;;;;;;;;;5092314;28;20463;-75
2022/09/04 05:22:06;;;;;;;8.23;7.53;;;;;;;;;;5095301;28;20436;-75
2022/09/04 05:24:37;;;;;;;8.50;7.80;;;;;;;;;;5094727;28;20444;-75
2022/09/04 05:27:08;;;;;;;8.17;7.53;;;;;;;;;;5094419;28;20460;-76
2022/09/04 05:29:39;;;;;;;7.57;6.97;;;;;;;;;;5094813;28;20463;-75
2022/09/04 05:32:12;;;;;;;7.50;6.90;;;;;;;;;;5086448;28;20469;-76
2022/09/04 05:34:53;;;;;;;6.60;6.10;;;;;;;;;;5079956;28;20440;-75
2022/09/04 05:37:23;;;;;;;6.53;6.03;;;;;;;;;;5095323;28;20536;-76
2022/09/04 05:39:57;;;;;;;8.00;7.30;;;;;;;;;;5090580;28;20475;-75
2022/09/04 05:42:39;;;;;;;7.27;6.67;;;;;;;;;;5093062;28;20440;-75
2022/09/04 05:45:10;;;;;;;9.47;7.13;;;;;;;;;;5093122;28;20452;-76
2022/09/04 05:47:43;;;;;;;6.40;5.90;;;;;;;;;;5094164;28;20537;-75
2022/09/04 05:50:18;;;;;;;6.80;6.30;;;;;;;;;;5091732;28;20570;-75
2022/09/04 05:53:03;;;;;;;7.60;7.00;;;;;;;;;;5089885;28;20460;-75
2022/09/04 05:55:47;;;;;;;6.90;6.30;;;;;;;;;;5085796;28;20637;-76
2022/09/04 05:58:22;;;;;;;6.93;6.33;;;;;;;;;;5096439;28;20478;-76
2022/09/04 06:00:54;;;;;;;7.60;7.00;;;;;;;;;;5097360;28;20489;-76
2022/09/04 06:03:36;;;;;;;6.47;5.87;;;;;;;;;;5090572;28;20456;-75
2022/09/04 06:06:07;;;;;;;5.97;5.57;;;;;;;;;;5094090;28;20457;-75
2022/09/04 06:08:53;;;;;;;5.87;5.47;;;;;;;;;;5100061;28;20444;-74
2022/09/04 06:11:34;;;;;;;6.17;5.63;;;;;;;;;;5099310;28;20459;-74
2022/09/04 06:14:08;;;;;;;6.00;5.60;;;;;;;;;;5100365;28;20475;-75
2022/09/04 06:16:48;;;;;;;5.30;5.00;;;;;;;;;;5099438;28;20478;-76
2022/09/04 06:19:36;;;;;;;6.03;5.63;;;;;;;;;;5094732;28;20437;-76
2022/09/04 06:22:11;;;;;;;5.40;4.90;;;;;;;;;;5079020;28;20453;-77
2022/09/04 06:24:49;;;;;;;6.07;5.47;;;;;;;;;;5081111;28;20440;-75
2022/09/04 06:27:25;;;;;;;5.03;4.63;;;;;;;;;;5083085;28;20465;-76
2022/09/04 06:30:01;;;;;;;5.67;5.37;;;;;;;;;;5087812;28;20454;-74
2022/09/04 06:32:34;;;;;;;5.67;5.17;;;;;;;;;;5093672;28;20498;-75
2022/09/04 06:35:19;;;;;;;5.43;5.13;;;;;;;;;;5090245;28;20480;-76
2022/09/04 06:37:53;;;;;;;5.27;4.87;;;;;;;;;;5078908;28;20467;-77
2022/09/04 06:40:33;;;;;;;5.17;4.77;;;;;;;;;;5078160;28;20649;-77
2022/09/04 06:43:08;;;;;;;5.87;5.47;;;;;;;;;;5082765;28;20426;-75
2022/09/04 06:45:41;;;;;;;5.60;5.20;;;;;;;;;;5076151;28;20424;-76
2022/09/04 06:48:13;;;;;;;5.60;5.20;;;;;;;;;;5079995;28;20460;-76
2022/09/04 06:50:46;;;;;;;5.73;5.33;;;;;;;;;;5094712;28;20416;-75
2022/09/04 06:53:27;;;;;;;5.83;5.43;;;;;;;;;;5095153;28;20537;-74
2022/09/04 06:56:04;;;;;;;5.97;5.57;;;;;;;;;;5092634;28;20436;-76
2022/09/04 06:58:51;;;;;;;5.93;5.53;;;;;;;;;;5094512;28;20472;-76
2022/09/04 07:01:21;;;;;;;5.50;5.10;;;;;;;;;;5095459;28;20452;-76
2022/09/04 07:03:57;;;;;;;5.90;5.40;;;;;;;;;;5090955;28;20474;-76
2022/09/04 07:06:27;;;;;;;5.60;5.10;;;;;;;;;;5091073;28;20463;-77
2022/09/04 07:09:00;;;;;;;5.50;5.13;;;;;;;;;;5093088;28;20425;-76
2022/09/04 07:11:33;;;;;;;5.53;5.03;;;;;;;;;;5097162;28;20425;-76
2022/09/04 07:14:21;;;;;;;6.60;6.20;;;;;;;;;;5096021;28;20456;-74
2022/09/04 07:16:55;;;;;;;5.20;4.87;;;;;;;;;;5067757;28;20465;-77
2022/09/04 07:19:29;;;;;;;5.90;5.30;;;;;;;;;;5090371;28;20790;-76
2022/09/04 07:22:06;;;;;;;5.80;5.33;;;;;;;;;;5095766;28;20417;-75
2022/09/04 07:24:47;;;;;;;5.20;4.90;;;;;;;;;;5091483;28;20445;-75
2022/09/04 07:27:16;;;;;;;4.80;4.50;;;;;;;;;;5085317;28;20456;-76
2022/09/04 07:29:49;;;;;;;5.20;4.70;;;;;;;;;;5087889;28;20421;-77
2022/09/04 07:32:19;;;;;;;5.93;5.53;;;;;;;;;;5079873;28;20449;-74
2022/09/04 07:34:51;;;;;;;6.17;5.77;;;;;;;;;;5070765;28;20434;-77
2022/09/04 07:37:23;;;;;;;5.80;5.40;;;;;;;;;;5067280;28;20541;-79
2022/09/04 07:39:58;;;;;;;5.90;5.40;;;;;;;;;;5069410;28;20446;-75
2022/09/04 07:42:28;;;;;;;5.17;4.80;;;;;;;;;;5058607;28;20441;-76
2022/09/04 07:44:59;;;;;;;5.20;4.80;;;;;;;;;;5067207;28;20453;-77
2022/09/04 07:47:29;;;;;;;4.80;4.40;;;;;;;;;;5066806;28;20492;-77
2022/09/04 07:50:00;;;;;;;5.90;4.70;;;;;;;;;;5071230;28;20418;-76
2022/09/04 07:52:33;;;;;;;4.77;4.47;;;;;;;;;;5084581;28;20432;-76
2022/09/04 07:55:18;;;;;;;5.70;5.20;;;;;;;;;;5083558;28;20432;-78
2022/09/04 07:57:57;;;;;;;4.97;4.57;;;;;;;;;;5095638;28;20487;-77
2022/09/04 08:00:24;;;;;;;5.63;5.33;;;;;;;;;;5085581;28;20436;-77
2022/09/04 08:03:00;;;;;;;4.97;4.63;;;;;;;;;;5079925;28;20437;-77
2022/09/04 08:05:30;;;;;;;4.60;4.30;;;;;;;;;;5079918;28;20452;-78
2022/09/04 08:08:16;;;;;;;4.77;4.47;;;;;;;;;;5080703;28;20525;-77
2022/09/04 08:10:51;;;;;;;4.80;4.50;;;;;;;;;;5082240;28;20440;-77
2022/09/04 08:13:24;;;;;;;4.73;4.43;;;;;;;;;;5079806;28;21195;-77
2022/09/04 08:15:53;;;;;;;4.63;4.23;;;;;;;;;;5077696;28;20429;-78
2022/09/04 08:18:34;;;;;;;4.30;4.00;;;;;;;;;;5078827;28;20476;-76
2022/09/04 08:21:12;;;;;;;4.33;4.07;;;;;;;;;;5072777;28;20448;-78
2022/09/04 08:23:49;;;;;;;3.57;3.37;;;;;;;;;;5076033;28;20447;-76
2022/09/04 08:26:19;;;;;;;3.80;3.50;;;;;;;;;;5076655;28;20436;-77
2022/09/04 08:29:01;;;;;;;5.07;4.67;;;;;;;;;;5071345;28;20968;-77
2022/09/04 08:31:30;;;;;;;3.67;3.47;;;;;;;;;;5069351;28;20457;-78
2022/09/04 08:34:09;;;;;;;3.60;3.40;;;;;;;;;;5071571;28;20483;-76
2022/09/04 08:36:40;;;;;;;4.30;3.40;;;;;;;;;;5071367;28;20463;-78
2022/09/04 08:39:10;;;;;;;3.80;3.50;;;;;;;;;;5072900;28;20475;-78
2022/09/04 08:41:53;;;;;;;3.63;3.33;;;;;;;;;;5071052;28;20556;-76
2022/09/04 08:44:32;;;;;;;5.97;3.80;;;;;;;;;;5070949;28;20425;-77
2022/09/04 08:47:20;;;;;;;3.60;3.40;;;;;;;;;;5070516;28;20468;-75
2022/09/04 08:50:00;;;;;;;3.83;3.50;;;;;;;;;;5044948;28;20455;-76
2022/09/04 08:52:37;;;;;;;5.40;3.30;;;;;;;;;;5070941;28;20424;-76
2022/09/04 08:55:14;;;;;;;4.10;3.83;;;;;;;;;;5071235;28;20526;-76
2022/09/04 08:57:58;;;;;;;4.33;3.93;;;;;;;;;;5070680;28;20526;-76
2022/09/04 09:00:31;;;;;;;3.60;3.03;;;;;;;;;;5070035;28;20509;-76
2022/09/04 09:03:15;;;;;;;3.53;3.20;;;;;;;;;;5069766;28;20476;-76
2022/09/04 09:06:05;;;;;;;2.90;2.80;;;;;;;;;;5070018;28;20452;-75
2022/09/04 09:08:37;;;;;;;3.00;2.80;;;;;;;;;;5071180;28;20505;-76
2022/09/04 09:11:19;;;;;;;3.73;3.40;;;;;;;;;;5074248;28;20451;-75
2022/09/04 09:14:01;;;;;;;3.23;3.03;;;;;;;;;;5046589;28;20522;-78
2022/09/04 09:16:37;;;;;;;2.63;2.43;;;;;;;;;;5069806;28;20468;-76
2022/09/04 09:19:09;;;;;;;2.93;2.73;;;;;;;;;;5082412;28;20475;-78
2022/09/04 09:21:42;;;;;;;2.80;2.60;;;;;;;;;;5080644;28;20474;-78
2022/09/04 09:24:20;;;;;;;2.90;2.70;;;;;;;;;;5074558;28;20440;-77
2022/09/04 09:26:56;;;;;;;2.57;2.47;;;;;;;;;;5075227;28;20498;-76
2022/09/04 09:29:32;;;;;;;2.80;2.60;;;;;;;;;;5074958;28;20440;-78
2022/09/04 09:32:09;;;;;;;2.80;2.40;;;;;;;;;;5075087;28;20448;-78
2022/09/04 09:34:54;;;;;;;1.73;1.63;;;;;;;;;;5074610;28;20991;-75
2022/09/04 09:37:36;;;;;;;1.60;1.50;;;;;;;;;;5044049;28;20838;-76
2022/09/04 09:40:12;;;;;;;1.90;1.80;;;;;;;;;;5073012;28;20448;-77
2022/09/04 09:42:48;;;;;;;2.00;1.90;;;;;;;;;;5075081;28;20440;-77
2022/09/04 09:45:22;;;;;;;2.10;2.00;;;;;;;;;;5074257;28;20531;-75
2022/09/04 09:48:07;;;;;;;1.57;1.47;;;;;;;;;;5074963;28;20568;-77
2022/09/04 09:50:55;;;;;;;1.70;1.60;;;;;;;;;;5074865;28;20497;-76
2022/09/04 09:53:42;;;;;;;1.70;1.60;;;;;;;;;;5050057;28;20476;-78
2022/09/04 09:56:22;;;;;;;1.70;1.60;;;;;;;;;;5075558;28;20452;-77
2022/09/04 09:59:02;;;;;;;2.20;1.83;;;;;;;;;;5074824;28;20436;-78
2022/09/04 10:01:42;;;;;;;1.80;1.50;;;;;;;;;;5073867;28;20448;-77
2022/09/04 10:04:25;;;;;;;1.80;1.70;;;;;;;;;;5073539;28;20499;-77
2022/09/04 10:07:10;;;;;;;1.93;1.80;;;;;;;;;;5041266;28;20548;-76
2022/09/04 10:09:55;;;;;;;2.17;2.07;;;;;;;;;;5076316;28;20433;-76
2022/09/04 10:12:40;;;;;;;1.80;1.70;;;;;;;;;;5026981;28;20453;-77
2022/09/04 10:15:28;;;;;;;2.47;1.57;;;;;;;;;;5057732;28;20524;-76
2022/09/04 10:18:24;;;;;;;1.73;1.63;;;;;;;;;;5058906;28;20497;-76
2022/09/04 10:21:12;;;;;;;2.07;1.90;;;;;;;;;;5060368;28;20453;-78
2022/09/04 10:23:49;;;;;;;1.70;1.60;;;;;;;;;;5038243;28;20442;-76
2022/09/04 10:26:25;;;;;;;2.60;2.30;;;;;;;;;;5054117;28;20426;-77
2022/09/04 10:29:11;;;;;;;1.90;1.80;;;;;;;;;;5053646;28;20445;-77
2022/09/04 10:31:48;;;;;;;1.90;1.73;;;;;;;;;;5053538;28;20457;-76
2022/09/04 10:34:22;;;;;;;1.60;1.50;;;;;;;;;;5053490;28;20503;-76
2022/09/04 10:36:58;;;;;;;1.60;1.50;;;;;;;;;;5053640;28;20465;-76
2022/09/04 10:42:25;;;;;;;1.60;1.50;;;;;;;;;;5061094;28;20413;-77
2022/09/04 10:45:03;;;;;;;1.70;1.60;;;;;;;;;;5060262;28;20452;-77
2022/09/04 10:47:37;;;;;;;2.10;1.90;;;;;;;;;;5053144;28;20465;-77
2022/09/04 10:50:12;;;;;;;1.90;1.80;;;;;;;;;;5053678;28;20437;-77
2022/09/04 10:52:49;;;;;;;1.90;1.80;;;;;;;;;;5063238;28;20452;-76
2022/09/04 10:55:26;;;;;;;1.50;1.40;;;;;;;;;;5071328;28;20483;-76
2022/09/04 10:58:13;;;;;;;1.63;1.40;;;;;;;;;;5070002;28;20926;-75
2022/09/04 11:00:49;;;;;;;3.60;2.00;;;;;;;;;;5049827;28;20453;-75
2022/09/04 11:03:35;;;;;;;1.53;1.23;;;;;;;;;;5068809;28;20503;-75
2022/09/04 11:06:32;;;;;;;1.40;1.33;;;;;;;;;;5068449;28;20449;-76
2022/09/04 11:09:07;;;;;;;1.40;1.30;;;;;;;;;;5062050;28;20452;-76
2022/09/04 11:11:46;;;;;;;1.30;1.20;;;;;;;;;;5066138;28;20432;-77
2022/09/04 11:14:24;;;;;;;2.03;1.83;;;;;;;;;;5075589;28;20476;-77
2022/09/04 11:17:09;;;;;;;2.60;2.47;;;;;;;;;;5074309;28;20468;-77
2022/09/04 11:20:06;;;;;;;1.63;1.57;;;;;;;;;;5073826;28;20501;-77
2022/09/04 11:22:57;;;;;;;1.87;1.77;;;;;;;;;;5009990;28;20471;-76
2022/09/04 11:25:43;;;;;;;2.57;1.30;;;;;;;;;;5062128;28;20445;-77
2022/09/04 11:28:19;;;;;;;1.47;1.37;;;;;;;;;;5072539;28;20463;-76
2022/09/04 11:31:03;;;;;;;1.57;1.47;;;;;;;;;;5072284;28;20512;-77
2022/09/04 11:33:41;;;;;;;1.37;1.27;;;;;;;;;;5071742;28;20421;-75
2022/09/04 11:36:21;;;;;;;1.40;1.40;;;;;;;;;;5072460;28;20448;-76
2022/09/04 11:39:02;;;;;;;1.60;1.50;;;;;;;;;;5072441;28;20444;-77
2022/09/04 11:41:43;;;;;;;1.87;1.37;;;;;;;;;;5072346;28;20490;-76
2022/09/04 11:44:28;;;;;;;1.50;1.40;;;;;;;;;;5071718;28;20529;-77
2022/09/04 11:47:06;;;;;;;1.33;1.30;;;;;;;;;;5071994;28;20465;-75
2022/09/04 11:49:42;;;;;;;1.50;1.40;;;;;;;;;;5072301;28;20444;-76
2022/09/04 11:52:27;;;;;;;1.53;1.47;;;;;;;;;;5071785;28;20444;-76
2022/09/04 11:55:13;;;;;;;1.60;1.50;;;;;;;;;;5071955;28;20480;-77
2022/09/04 11:57:57;;;;;;;1.70;1.60;;;;;;;;;;5071366;28;20498;-76
2022/09/04 12:00:29;;;;;;;1.50;1.50;;;;;;;;;;5071204;28;20436;-76
2022/09/04 12:03:20;;;;;;;1.37;1.27;;;;;;;;;;5071598;28;20495;-76
2022/09/04 12:05:59;;;;;;;1.63;1.53;;;;;;;;;;5071400;28;20444;-76
2022/09/04 12:08:36;;;;;;;1.90;1.80;;;;;;;;;;5071360;28;20468;-75
2022/09/04 12:11:17;;;;;;;1.80;1.50;;;;;;;;;;5071601;28;20439;-75
2022/09/04 12:13:57;;;;;;;1.20;1.10;;;;;;;;;;5071727;28;20471;-76
2022/09/04 12:16:42;;;;;;;1.53;1.43;;;;;;;;;;5070866;28;21184;-75
2022/09/04 12:19:23;;;;;;;1.60;1.50;;;;;;;;;;5070841;28;20551;-76
2022/09/04 12:22:07;;;;;;;1.47;1.47;;;;;;;;;;5070946;28;20444;-76
2022/09/04 12:24:52;;;;;;;1.43;1.40;;;;;;;;;;5076647;28;20489;-76
2022/09/04 12:27:37;;;;;;;1.60;1.47;;;;;;;;;;5051845;28;20510;-76
2022/09/04 12:30:10;;;;;;;1.50;1.40;;;;;;;;;;5057259;28;20440;-76
2022/09/04 12:33:10;;;;;;;3.50;1.43;;;;;;;;;;5087171;28;20435;-75
2022/09/04 12:35:55;;;;;;;2.20;1.20;;;;;;;;;;5073254;28;20543;-75
2022/09/04 12:38:33;;;;;;;1.50;1.40;;;;;;;;;;5060272;28;20468;-76
2022/09/04 12:41:03;;;;;;;1.50;1.40;;;;;;;;;;5070810;28;20969;-77
2022/09/04 12:43:41;;;;;;;1.40;1.13;;;;;;;;;;5069367;28;20440;-76
2022/09/04 12:46:15;;;;;;;1.90;1.43;;;;;;;;;;5070260;28;20540;-76
2022/09/04 12:48:48;;;;;;;1.40;1.30;;;;;;;;;;5070644;28;20459;-76
2022/09/04 12:51:23;;;;;;;1.57;1.47;;;;;;;;;;5070220;28;20514;-76
2022/09/04 12:54:08;;;;;;;1.47;1.20;;;;;;;;;;5069987;28;20505;-77
2022/09/04 12:56:41;;;;;;;1.40;1.30;;;;;;;;;;5069791;28;20468;-76
2022/09/04 12:59:16;;;;;;;1.57;1.47;;;;;;;;;;5070150;28;20797;-75
2022/09/04 13:01:50;;;;;;;1.53;1.43;;;;;;;;;;5070038;28;20448;-76
2022/09/04 13:04:21;;;;;;;1.77;1.60;;;;;;;;;;5069825;28;20510;-75
2022/09/04 13:06:52;;;;;;;1.37;1.10;;;;;;;;;;5070256;28;20506;-75
2022/09/04 13:09:25;;;;;;;1.60;1.50;;;;;;;;;;5070704;28;20447;-75
2022/09/04 13:11:57;;;;;;;3.80;2.33;;;;;;;;;;5056523;28;20450;-75
2022/09/04 13:14:34;;;;;;;1.60;1.50;;;;;;;;;;5050718;28;20470;-76
2022/09/04 13:17:03;;;;;;;1.33;1.23;;;;;;;;;;5050378;28;20465;-77
2022/09/04 13:19:34;;;;;;;1.70;1.60;;;;;;;;;;5050532;28;20441;-75
2022/09/04 13:22:06;;;;;;;1.57;1.23;;;;;;;;;;5051723;28;20941;-76
2022/09/04 13:24:40;;;;;;;1.50;1.40;;;;;;;;;;5051953;28;20526;-76
2022/09/04 13:27:14;;;;;;;3.00;1.60;;;;;;;;;;5055895;28;20470;-76
2022/09/04 13:29:46;;;;;;;1.47;1.47;;;;;;;;;;5054294;28;20528;-77
2022/09/04 13:32:24;;;;;;;1.63;1.53;;;;;;;;;;5050289;28;20507;-76
2022/09/04 13:35:00;;;;;;;1.37;1.37;;;;;;;;;;5050299;28;20520;-77
2022/09/04 13:37:29;;;;;;;3.50;1.43;;;;;;;;;;5050431;28;20952;-75
2022/09/04 13:40:06;;;;;;;1.80;1.70;;;;;;;;;;5057509;28;20526;-75
2022/09/04 13:42:50;;;;;;;1.80;1.70;;;;;;;;;;5058928;28;20921;-77
2022/09/04 13:45:22;;;;;;;1.57;1.53;;;;;;;;;;5053327;28;20438;-76
2022/09/04 13:47:50;;;;;;;1.33;1.23;;;;;;;;;;5057123;28;20470;-76
2022/09/04 13:50:19;;;;;;;1.93;1.17;;;;;;;;;;5055187;28;20830;-76
2022/09/04 13:52:53;;;;;;;2.30;1.60;;;;;;;;;;5052414;28;20445;-75
2022/09/04 13:55:23;;;;;;;1.70;1.60;;;;;;;;;;5053037;28;20497;-77
2022/09/04 13:57:56;;;;;;;1.57;1.50;;;;;;;;;;5054498;28;20483;-76
2022/09/04 14:00:23;;;;;;;1.20;1.20;;;;;;;;;;5054118;28;20426;-77
2022/09/04 14:02:54;;;;;;;1.63;1.17;;;;;;;;;;5053701;28;20463;-76
2022/09/04 14:05:23;;;;;;;1.60;1.60;;;;;;;;;;5053293;28;20552;-76
2022/09/04 14:07:52;;;;;;;1.60;1.50;;;;;;;;;;5053490;28;20476;-76
2022/09/04 14:10:24;;;;;;;1.50;1.40;;;;;;;;;;5054085;28;20457;-78
2022/09/04 14:13:10;;;;;;;1.53;1.43;;;;;;;;;;5072841;28;20460;-77
2022/09/04 14:16:00;;;;;;;1.53;1.43;;;;;;;;;;5072986;28;20495;-76
2022/09/04 14:18:46;;;;;;;1.23;1.23;;;;;;;;;;5073524;28;20472;-77
2022/09/04 14:21:19;;;;;;;1.47;1.37;;;;;;;;;;5073126;28;20513;-77
2022/09/04 14:23:51;;;;;;;2.10;1.50;;;;;;;;;;5072799;28;20444;-75
2022/09/04 14:26:23;;;;;;;1.83;1.63;;;;;;;;;;5072839;28;20932;-77
2022/09/04 14:28:54;;;;;;;1.63;1.53;;;;;;;;;;5073275;28;20445;-76
2022/09/04 14:31:24;;;;;;;1.40;1.40;;;;;;;;;;5073048;28;20552;-76
2022/09/04 14:33:55;;;;;;;1.80;1.70;;;;;;;;;;5072571;28;20440;-76
2022/09/04 14:36:27;;;;;;;1.90;1.80;;;;;;;;;;5072437;28;20963;-77
2022/09/04 14:39:00;;;;;;;2.07;1.53;;;;;;;;;;5072951;28;20437;-76
2022/09/04 14:41:35;;;;;;;1.70;1.60;;;;;;;;;;5072920;28;20432;-76
2022/09/04 14:44:08;;;;;;;1.20;1.20;;;;;;;;;;5072226;28;20944;-76
2022/09/04 14:46:38;;;;;;;1.30;1.30;;;;;;;;;;5072484;28;20463;-76
2022/09/04 14:49:06;;;;;;;1.37;1.30;;;;;;;;;;5073106;28;20503;-77
2022/09/04 14:51:34;;;;;;;3.07;1.80;;;;;;;;;;5073240;28;20449;-77
2022/09/04 14:54:02;;;;;;;1.87;1.77;;;;;;;;;;5072551;28;20452;-76
2022/09/04 14:56:32;;;;;;;1.40;1.30;;;;;;;;;;5071829;28;20493;-76
2022/09/04 14:59:02;;;;;;;1.60;1.50;;;;;;;;;;5072202;28;20444;-76
2022/09/04 15:01:32;;;;;;;1.60;1.50;;;;;;;;;;5071596;28;20487;-76
2022/09/04 15:04:01;;;;;;;1.80;1.70;;;;;;;;;;5071678;28;20967;-76
2022/09/04 15:06:31;;;;;;;1.37;1.30;;;;;;;;;;5071094;28;20833;-77
2022/09/04 15:09:00;;;;;;;1.30;1.30;;;;;;;;;;5071985;28;20487;-75
2022/09/04 15:11:29;;;;;;;1.50;1.40;;;;;;;;;;5062636;28;20532;-76
2022/09/04 15:13:58;;;;;;;1.57;1.47;;;;;;;;;;5052002;28;21006;-77
2022/09/04 15:16:34;;;;;;;1.90;1.60;;;;;;;;;;5051891;28;20515;-77
2022/09/04 15:19:05;;;;;;;1.60;1.50;;;;;;;;;;5052166;28;20606;-77
2022/09/04 15:21:37;;;;;;;1.67;1.43;;;;;;;;;;5052390;28;20437;-77
2022/09/04 15:24:10;;;;;;;1.70;1.60;;;;;;;;;;5051696;28;21101;-77
2022/09/04 15:26:39;;;;;;;1.77;1.50;;;;;;;;;;5052351;28;20562;-77
2022/09/04 15:29:10;;;;;;;1.57;1.47;;;;;;;;;;5052559;28;20442;-76
2022/09/04 15:31:38;;;;;;;2.00;1.40;;;;;;;;;;5051785;28;20453;-77
2022/09/04 15:34:09;;;;;;;1.63;1.53;;;;;;;;;;5051356;28;20498;-77
2022/09/04 15:36:38;;;;;;;1.60;1.50;;;;;;;;;;5051430;28;20512;-77